Time;durP1;ratioP1;P1;durP2;ratioP2;P2;SDS_P1;SDS_P2;PMS_P1;PMS_P2;Temp;Humidity;BMP_temperature;BMP_pressure;BME280_temperature;BME280_humidity;BME280_pressure;Samples;Min_cycle;Max_cycle;Signal;HPM_P1;HPM_P2
2022/10/03 00:04:49;;;;;;;120.90;60.30;;;21.50;72.00;;;;;;219202;1274;25470;-57
2022/10/03 00:10:37;;;;;;;129.00;59.70;;;21.50;71.60;;;;;;219164;1275;22581;-59
2022/10/03 00:15:54;;;;;;;119.50;58.30;;;21.50;72.00;;;;;;221535;1274;25390;-59
2022/10/03 00:21:08;;;;;;;116.00;56.20;;;21.50;72.00;;;;;;219115;1277;23021;-58
2022/10/03 00:26:43;;;;;;;112.00;54.50;;;21.50;71.90;;;;;;220189;1271;22567;-59
2022/10/03 00:32:05;;;;;;;111.70;56.30;;;21.50;71.90;;;;;;220022;1271;25227;-59
2022/10/03 00:37:18;;;;;;;113.60;55.90;;;21.50;71.90;;;;;;220086;1271;22533;-59
2022/10/03 00:42:34;;;;;;;113.30;53.30;;;21.40;71.90;;;;;;220042;1270;22551;-60
2022/10/03 00:47:40;;;;;;;105.30;54.30;;;21.50;72.00;;;;;;220028;1270;23955;-57
2022/10/03 00:53:02;;;;;;;106.40;52.60;;;21.40;72.00;;;;;;219685;1270;22526;-60
2022/10/03 00:58:26;;;;;;;99.50;50.30;;;21.40;72.10;;;;;;219841;1274;24299;-60
2022/10/03 01:03:40;;;;;;;93.70;48.50;;;21.40;71.90;;;;;;219851;1271;22554;-60
2022/10/03 01:09:09;;;;;;;94.10;48.10;;;21.40;71.90;;;;;;220117;1273;26494;-59
2022/10/03 01:14:31;;;;;;;96.50;49.10;;;21.40;72.80;;;;;;219941;1272;22553;-59
2022/10/03 01:20:03;;;;;;;94.40;49.00;;;21.30;71.70;;;;;;219920;1271;22676;-61
2022/10/03 01:25:18;;;;;;;86.40;45.80;;;21.30;72.00;;;;;;219802;1273;22717;-59
2022/10/03 01:30:22;;;;;;;91.90;46.40;;;21.30;71.80;;;;;;219906;1271;25233;-59
2022/10/03 01:35:41;;;;;;;92.70;46.50;;;21.30;71.90;;;;;;220074;1271;22536;-58
2022/10/03 01:40:54;;;;;;;91.60;46.70;;;21.30;71.80;;;;;;220016;1271;22585;-60
2022/10/03 01:46:07;;;;;;;81.40;43.90;;;21.30;71.90;;;;;;219832;1271;22554;-60
2022/10/03 01:51:33;;;;;;;86.00;45.40;;;21.30;71.90;;;;;;219997;1271;25260;-58
2022/10/03 01:56:58;;;;;;;85.80;44.30;;;21.30;71.90;;;;;;219936;1272;22559;-60
2022/10/03 02:02:28;;;;;;;80.20;43.00;;;21.30;71.90;;;;;;220075;1271;22547;-57
2022/10/03 02:07:55;;;;;;;77.30;41.60;;;21.30;71.90;;;;;;220159;1271;25434;-60
2022/10/03 02:13:10;;;;;;;80.20;40.20;;;21.20;71.90;;;;;;220045;1271;24294;-58
2022/10/03 02:18:20;;;;;;;78.00;41.00;;;21.20;71.90;;;;;;220272;1270;22634;-60
2022/10/03 02:23:39;;;;;;;72.40;39.60;;;21.20;72.10;;;;;;220320;1271;22570;-60
2022/10/03 02:29:01;;;;;;;76.60;39.80;;;21.20;71.90;;;;;;220257;1271;22535;-59
2022/10/03 02:34:19;;;;;;;77.10;39.30;;;21.20;72.10;;;;;;220043;1271;24217;-61
2022/10/03 02:39:54;;;;;;;76.80;38.80;;;21.20;71.90;;;;;;220076;1271;22712;-59
2022/10/03 02:45:18;;;;;;;71.60;37.70;;;21.20;72.10;;;;;;219789;1271;27185;-57
2022/10/03 02:50:37;;;;;;;64.50;37.80;;;21.20;72.30;;;;;;219734;1270;22692;-58
2022/10/03 02:55:59;;;;;;;64.60;36.10;;;21.20;72.20;;;;;;219828;1271;23103;-60
2022/10/03 03:01:24;;;;;;;64.50;36.10;;;21.20;72.20;;;;;;219851;1272;25248;-60
2022/10/03 03:06:28;;;;;;;67.70;35.50;;;21.20;72.10;;;;;;220108;1271;25311;-59
2022/10/03 03:11:55;;;;;;;70.90;36.80;;;21.10;72.20;;;;;;219877;1273;22521;-61
2022/10/03 03:17:43;;;;;;;62.50;34.40;;;21.10;71.90;;;;;;219884;1271;22534;-60
2022/10/03 03:22:53;;;;;;;68.40;33.40;;;21.10;72.00;;;;;;219515;1271;22547;-59
2022/10/03 03:28:14;;;;;;;56.50;31.70;;;21.10;71.90;;;;;;219984;1271;25313;-60
2022/10/03 03:33:52;;;;;;;59.60;33.00;;;21.10;71.40;;;;;;220169;1271;25517;-61
2022/10/03 03:39:10;;;;;;;58.10;33.10;;;21.10;71.90;;;;;;219893;1271;22566;-60
2022/10/03 03:44:53;;;;;;;55.10;31.50;;;21.10;71.90;;;;;;219988;1271;22611;-60
2022/10/03 03:50:24;;;;;;;52.80;30.90;;;21.10;71.90;;;;;;219560;1271;25358;-59
2022/10/03 03:55:39;;;;;;;51.70;29.80;;;21.10;71.90;;;;;;220056;1271;25401;-59
2022/10/03 04:00:52;;;;;;;52.10;30.40;;;21.00;71.80;;;;;;220235;1272;24155;-59
2022/10/03 04:06:02;;;;;;;55.10;30.20;;;21.00;72.00;;;;;;219922;1271;24222;-60
2022/10/03 04:11:17;;;;;;;49.70;30.50;;;21.00;71.90;;;;;;220242;1271;25662;-57
2022/10/03 04:22:17;;;;;;;53.60;29.30;;;21.00;72.00;;;;;;220081;1270;24153;-55
2022/10/03 04:27:21;;;;;;;52.10;29.20;;;21.00;72.00;;;;;;220112;1271;25552;-57
2022/10/03 04:32:40;;;;;;;46.10;27.50;;;21.00;71.90;;;;;;220160;1270;22532;-52
2022/10/03 04:37:59;;;;;;;46.80;27.90;;;21.00;72.00;;;;;;220347;1270;25311;-54
2022/10/03 04:43:17;;;;;;;48.40;27.80;;;21.00;72.40;;;;;;220024;1272;24289;-58
2022/10/03 04:48:49;;;;;;;47.90;26.20;;;20.90;72.10;;;;;;220113;1271;22580;-57
2022/10/03 04:54:04;;;;;;;46.00;27.50;;;21.00;72.10;;;;;;220183;1271;24334;-54
2022/10/03 04:59:28;;;;;;;43.00;25.30;;;20.90;72.10;;;;;;219849;1271;22532;-53
2022/10/03 05:04:59;;;;;;;47.60;26.90;;;20.90;72.00;;;;;;219796;1274;22736;-53
2022/10/03 05:10:30;;;;;;;42.80;25.50;;;21.00;71.60;;;;;;220196;1271;23803;-58
2022/10/03 05:16:01;;;;;;;35.40;21.60;;;21.20;71.50;;;;;;220028;1271;26667;-55
2022/10/03 05:21:29;;;;;;;30.50;17.90;;;21.30;70.90;;;;;;220091;1271;25287;-56
2022/10/03 05:27:21;;;;;;;27.70;18.50;;;21.40;70.80;;;;;;219914;1271;23907;-56
2022/10/03 05:32:39;;;;;;;28.10;17.80;;;21.50;71.00;;;;;;219350;1271;24791;-55
2022/10/03 05:38:20;;;;;;;26.10;16.60;;;21.60;70.10;;;;;;219881;1271;24220;-58
2022/10/03 05:43:46;;;;;;;27.60;16.80;;;21.60;70.20;;;;;;219875;1271;25447;-55
2022/10/03 05:49:08;;;;;;;28.10;16.50;;;21.60;70.30;;;;;;219746;1271;22656;-57
2022/10/03 05:54:30;;;;;;;;;;;21.60;70.20;;;;;;219866;1271;154591;-55
2022/10/03 06:00:18;;;;;;;26.30;16.30;;;21.60;70.40;;;;;;219769;1271;22559;-58
2022/10/03 06:05:41;;;;;;;26.00;15.40;;;21.60;70.20;;;;;;219913;1275;25236;-55
2022/10/03 06:11:12;;;;;;;25.90;15.70;;;21.60;70.10;;;;;;219760;1272;22561;-54
2022/10/03 06:16:22;;;;;;;23.60;14.90;;;21.60;69.90;;;;;;219704;1272;22716;-55
2022/10/03 06:21:25;;;;;;;25.90;15.50;;;21.60;70.10;;;;;;220010;1273;22538;-55
2022/10/03 06:26:53;;;;;;;21.80;12.60;;;21.60;69.90;;;;;;219997;1271;24249;-53
2022/10/03 06:32:12;;;;;;;;;;;21.60;70.00;;;;;;219904;1271;24416;-55
2022/10/03 06:37:38;;;;;;;21.40;13.40;;;21.60;70.00;;;;;;219960;1272;25627;-55
2022/10/03 06:42:52;;;;;;;20.50;13.90;;;21.50;70.50;;;;;;219917;1271;22552;-52
2022/10/03 06:48:39;;;;;;;20.40;13.30;;;21.60;70.00;;;;;;219710;1272;22556;-54
2022/10/03 06:53:56;;;;;;;22.00;12.40;;;21.60;70.20;;;;;;219935;1271;22559;-55
2022/10/03 06:59:06;;;;;;;19.00;12.40;;;21.60;69.90;;;;;;219666;1271;22545;-55
2022/10/03 07:04:40;;;;;;;18.90;11.80;;;21.60;70.10;;;;;;219717;1272;22722;-53
2022/10/03 07:10:12;;;;;;;20.70;12.80;;;21.60;69.70;;;;;;219926;1271;22833;-56
2022/10/03 07:15:54;;;;;;;18.80;11.90;;;21.60;69.80;;;;;;219939;1271;24213;-55
2022/10/03 07:22:15;;;;;;;19.20;11.80;;;21.60;69.80;;;;;;219797;1272;24451;-53
2022/10/03 07:27:52;;;;;;;16.90;11.30;;;21.60;69.70;;;;;;218777;1276;26687;-54
2022/10/03 07:33:05;;;;;;;17.90;10.80;;;21.60;70.20;;;;;;219931;1271;22573;-56
2022/10/03 07:43:59;;;;;;;15.50;10.30;;;21.60;70.00;;;;;;219963;1272;23165;-59
2022/10/03 07:49:35;;;;;;;17.30;9.60;;;21.60;70.20;;;;;;219931;1271;22639;-57
2022/10/03 07:54:41;;;;;;;18.60;10.60;;;21.70;70.20;;;;;;220098;1271;22546;-57
2022/10/03 08:00:12;;;;;;;19.90;10.90;;;21.80;70.30;;;;;;219814;1271;24260;-56
2022/10/03 08:05:47;;;;;;;18.80;10.60;;;21.80;70.90;;;;;;220106;1271;24289;-56
2022/10/03 08:11:15;;;;;;;21.20;11.40;;;21.80;70.60;;;;;;219965;1271;24296;-55
2022/10/03 08:16:28;;;;;;;223.60;66.30;;;21.90;71.00;;;;;;219862;1271;22535;-53
2022/10/03 08:21:50;;;;;;;376.20;112.70;;;21.80;71.10;;;;;;219579;1273;23593;-55
2022/10/03 08:27:46;;;;;;;710.80;247.80;;;21.90;70.80;;;;;;219498;1272;24218;-54
2022/10/03 08:33:32;;;;;;;510.30;160.30;;;21.90;70.70;;;;;;219429;1273;23396;-55
2022/10/03 08:38:51;;;;;;;466.00;146.80;;;21.90;70.80;;;;;;219935;1271;25333;-57
2022/10/03 08:44:39;;;;;;;413.80;132.60;;;21.80;70.90;;;;;;219765;1271;22620;-55
2022/10/03 08:49:50;;;;;;;366.90;117.00;;;21.90;70.30;;;;;;219945;1271;22601;-55
2022/10/03 08:55:03;;;;;;;374.50;115.20;;;21.90;70.50;;;;;;219711;1273;22718;-53
2022/10/03 09:00:21;;;;;;;405.90;132.50;;;21.90;70.00;;;;;;219530;1271;25309;-56
2022/10/03 09:05:52;;;;;;;590.50;211.40;;;21.90;70.00;;;;;;219586;1272;22549;-53
2022/10/03 09:11:15;;;;;;;589.10;207.90;;;22.00;69.80;;;;;;219459;1271;22531;-54
2022/10/03 09:16:33;;;;;;;623.00;224.70;;;22.00;69.60;;;;;;219593;1271;22557;-55
2022/10/03 09:21:56;;;;;;;512.30;178.00;;;22.10;69.60;;;;;;220467;1271;22560;-55
2022/10/03 09:27:15;;;;;;;545.70;183.80;;;22.10;69.00;;;;;;219535;1271;22649;-56
2022/10/03 09:32:34;;;;;;;534.30;192.00;;;22.00;68.90;;;;;;219830;1271;23919;-53
2022/10/03 09:38:00;;;;;;;526.60;190.70;;;22.00;69.30;;;;;;219996;1271;22547;-55
2022/10/03 09:43:14;;;;;;;494.50;177.60;;;21.90;69.30;;;;;;219666;1271;25343;-57
2022/10/03 09:48:41;;;;;;;489.90;170.20;;;21.90;69.80;;;;;;219964;1271;22837;-52
2022/10/03 09:54:08;;;;;;;482.20;176.30;;;21.90;69.60;;;;;;219681;1271;25138;-51
2022/10/03 09:59:32;;;;;;;449.60;165.00;;;21.90;69.80;;;;;;219990;1271;25255;-54
2022/10/03 10:04:43;;;;;;;436.20;158.80;;;21.90;69.40;;;;;;219806;1271;22988;-55
2022/10/03 10:10:23;;;;;;;445.10;159.30;;;21.90;69.70;;;;;;219777;1270;22646;-55
2022/10/03 10:15:42;;;;;;;398.60;142.00;;;21.90;70.10;;;;;;219862;1272;25249;-55
2022/10/03 10:21:23;;;;;;;371.50;132.90;;;21.90;69.10;;;;;;219556;1271;24261;-54
2022/10/03 10:26:57;;;;;;;346.80;126.60;;;21.80;69.00;;;;;;219884;1271;22535;-53
2022/10/03 10:32:32;;;;;;;287.40;108.20;;;21.80;68.90;;;;;;219666;1271;22571;-54
2022/10/03 10:37:45;;;;;;;297.30;106.50;;;21.80;68.70;;;;;;219869;1271;23126;-52
2022/10/03 10:43:22;;;;;;;242.60;89.60;;;21.80;68.60;;;;;;219968;1270;23095;-56
2022/10/03 10:48:32;;;;;;;222.30;84.30;;;21.90;68.50;;;;;;219988;1271;24248;-51
2022/10/03 10:53:53;;;;;;;202.10;81.10;;;22.00;68.30;;;;;;219740;1271;22597;-54
2022/10/03 10:59:22;;;;;;;191.80;76.10;;;22.00;68.50;;;;;;219729;1271;22549;-49
2022/10/03 11:05:07;;;;;;;201.40;75.20;;;21.90;68.80;;;;;;219902;1271;24389;-54
2022/10/03 11:10:32;;;;;;;189.10;70.70;;;21.90;68.90;;;;;;219748;1271;22748;-52
2022/10/03 11:16:10;;;;;;;187.80;72.20;;;21.90;69.00;;;;;;220022;1271;23210;-54
2022/10/03 11:21:41;;;;;;;184.10;69.40;;;22.00;69.30;;;;;;219641;1271;23712;-54
2022/10/03 11:27:06;;;;;;;180.10;72.30;;;22.00;69.90;;;;;;220213;1271;22550;-48
2022/10/03 11:32:43;;;;;;;168.00;70.30;;;22.00;69.80;;;;;;219762;1270;25349;-53
2022/10/03 11:37:55;;;;;;;167.30;66.00;;;22.00;70.40;;;;;;219827;1271;22532;-53
2022/10/03 11:43:26;;;;;;;162.70;66.00;;;22.00;70.10;;;;;;219847;1271;25266;-51
2022/10/03 11:48:32;;;;;;;;;;;21.90;70.10;;;;;;219697;1272;22592;-49
2022/10/03 11:53:42;;;;;;;145.50;59.40;;;21.90;70.60;;;;;;219419;1271;25307;-55
2022/10/03 11:59:03;;;;;;;155.60;63.40;;;21.90;70.40;;;;;;220039;1271;24278;-48
2022/10/03 12:04:33;;;;;;;151.10;60.60;;;21.90;71.10;;;;;;219742;1271;22567;-58
2022/10/03 12:10:06;;;;;;;153.70;63.50;;;21.80;71.20;;;;;;219748;1271;24285;-57
2022/10/03 12:15:57;;;;;;;143.00;58.00;;;21.90;71.50;;;;;;219726;1270;23165;-54
2022/10/03 12:21:18;;;;;;;122.60;52.00;;;21.80;71.50;;;;;;219680;1271;23044;-53
2022/10/03 12:26:59;;;;;;;151.40;60.50;;;21.80;71.60;;;;;;219835;1270;22558;-57
2022/10/03 12:32:27;;;;;;;138.20;55.60;;;21.90;71.70;;;;;;219500;1271;22546;-54
2022/10/03 12:37:59;;;;;;;130.00;53.70;;;21.90;71.70;;;;;;219613;1271;24080;-53
2022/10/03 12:43:27;;;;;;;108.40;43.40;;;22.00;71.70;;;;;;219880;1270;22560;-55
2022/10/03 12:48:46;;;;;;;99.10;43.10;;;22.10;70.80;;;;;;219531;1271;25193;-53
2022/10/03 12:54:13;;;;;;;91.90;40.50;;;22.20;70.90;;;;;;220046;1271;25246;-53
2022/10/03 12:59:43;;;;;;;95.20;41.70;;;22.20;70.50;;;;;;219850;1271;22655;-53
2022/10/03 13:05:29;;;;;;;94.80;41.40;;;22.10;71.10;;;;;;219716;1270;22768;-57
2022/10/03 13:10:46;;;;;;;100.80;44.30;;;22.00;70.70;;;;;;219918;1273;22563;-56
2022/10/03 13:16:26;;;;;;;84.90;39.30;;;22.00;71.60;;;;;;221117;1271;22585;-57
2022/10/03 13:21:42;;;;;;;83.90;37.30;;;22.10;71.10;;;;;;219786;1270;23264;-56
2022/10/03 13:27:02;;;;;;;89.90;39.70;;;22.10;71.70;;;;;;219392;1271;22557;-56
2022/10/03 13:32:08;;;;;;;84.00;37.20;;;22.10;72.20;;;;;;219700;1271;25319;-57
2022/10/03 13:37:40;;;;;;;79.20;36.20;;;22.10;71.70;;;;;;219891;1273;26670;-55
2022/10/03 13:42:52;;;;;;;84.50;38.30;;;22.00;71.20;;;;;;219546;1271;22697;-56
2022/10/03 13:48:06;;;;;;;84.90;35.50;;;22.10;72.70;;;;;;219960;1272;24361;-59
2022/10/03 13:53:10;;;;;;;85.50;34.10;;;22.10;73.00;;;;;;219635;1271;23943;-56
2022/10/03 13:58:14;;;;;;;75.40;34.70;;;22.10;72.60;;;;;;220115;1270;24303;-58
2022/10/03 14:03:47;;;;;;;75.00;33.60;;;22.10;72.70;;;;;;219911;1271;24338;-56
2022/10/03 14:08:59;;;;;;;76.20;31.30;;;22.10;73.70;;;;;;219550;1271;22558;-55
2022/10/03 14:14:04;;;;;;;75.60;35.20;;;22.10;73.20;;;;;;219766;1271;22532;-57
2022/10/03 14:19:30;;;;;;;72.90;31.40;;;22.10;73.50;;;;;;219917;1271;22531;-56
2022/10/03 14:24:43;;;;;;;79.00;33.30;;;22.10;73.50;;;;;;219485;1270;22560;-57
2022/10/03 14:30:16;;;;;;;61.80;29.40;;;22.10;74.00;;;;;;219658;1271;22544;-55
2022/10/03 14:35:36;;;;;;;54.40;26.50;;;22.00;73.30;;;;;;219815;1271;22547;-55
2022/10/03 14:40:43;;;;;;;58.30;25.80;;;22.00;74.30;;;;;;219371;1271;22544;-52
2022/10/03 14:45:53;;;;;;;54.30;25.70;;;22.00;74.30;;;;;;219205;1271;24283;-53
2022/10/03 14:51:07;;;;;;;52.50;25.80;;;22.00;74.60;;;;;;219333;1271;23869;-55
2022/10/03 14:56:14;;;;;;;51.60;22.50;;;21.90;74.60;;;;;;219407;1271;22550;-56
2022/10/03 15:01:27;;;;;;;52.10;24.70;;;21.90;74.90;;;;;;219708;1270;25243;-56
2022/10/03 15:06:49;;;;;;;196.40;99.80;;;22.00;75.40;;;;;;219993;1270;24055;-55
2022/10/03 15:12:04;;;;;;;160.90;81.70;;;22.00;76.10;;;;;;219738;1273;24224;-57
2022/10/03 15:17:22;;;;;;;151.40;76.50;;;22.00;76.10;;;;;;219774;1273;22551;-57
2022/10/03 15:22:47;;;;;;;147.90;74.60;;;22.00;75.70;;;;;;219759;1271;22569;-57
2022/10/03 15:28:01;;;;;;;140.60;70.80;;;22.00;75.80;;;;;;219839;1271;23971;-56
2022/10/03 15:33:15;;;;;;;126.70;64.40;;;22.00;76.10;;;;;;219749;1271;26193;-58
2022/10/03 15:38:26;;;;;;;127.00;65.30;;;22.00;75.80;;;;;;220031;1270;24254;-56
2022/10/03 15:44:14;;;;;;;126.30;63.80;;;22.00;75.30;;;;;;220119;1271;24234;-55
2022/10/03 15:49:19;;;;;;;124.50;65.30;;;22.00;75.20;;;;;;219107;1272;25421;-55
2022/10/03 15:54:29;;;;;;;120.80;61.80;;;22.10;74.90;;;;;;219707;1271;25336;-58
2022/10/03 15:59:36;;;;;;;118.00;61.60;;;22.10;75.30;;;;;;219699;1271;22987;-55
2022/10/03 16:04:54;;;;;;;110.60;60.00;;;22.10;74.60;;;;;;219639;1271;25248;-56
2022/10/03 16:10:17;;;;;;;118.40;59.10;;;22.00;74.60;;;;;;219781;1270;24217;-56
2022/10/03 16:15:35;;;;;;;105.50;50.50;;;22.00;74.40;;;;;;219853;1270;22539;-55
2022/10/03 16:20:41;;;;;;;102.40;53.00;;;22.00;74.00;;;;;;219943;1271;22619;-53
2022/10/03 16:25:51;;;;;;;99.10;50.30;;;22.00;74.10;;;;;;220072;1271;23904;-54
2022/10/03 16:31:04;;;;;;;93.70;51.10;;;22.00;73.80;;;;;;219946;1273;24310;-57
2022/10/03 16:36:15;;;;;;;87.30;46.40;;;22.00;73.40;;;;;;219754;1273;24406;-56
2022/10/03 16:41:28;;;;;;;86.70;47.50;;;22.00;73.00;;;;;;219756;1273;23382;-56
2022/10/03 16:46:42;;;;;;;85.10;45.10;;;22.00;73.00;;;;;;219757;1273;24379;-58
2022/10/03 16:52:08;;;;;;;74.00;39.70;;;22.00;73.00;;;;;;219424;1273;22539;-57
2022/10/03 16:57:32;;;;;;;82.00;40.70;;;22.00;72.80;;;;;;219432;1273;25316;-58
2022/10/03 17:02:37;;;;;;;80.20;40.30;;;22.00;72.90;;;;;;219422;1273;27705;-54
2022/10/03 17:07:46;;;;;;;63.10;35.30;;;22.00;73.00;;;;;;219667;1273;22617;-57
2022/10/03 17:12:54;;;;;;;62.80;34.80;;;21.90;72.20;;;;;;219730;1273;22544;-55
2022/10/03 17:18:17;;;;;;;61.20;33.30;;;21.80;72.60;;;;;;219639;1273;25030;-57
2022/10/03 17:23:36;;;;;;;61.30;32.40;;;21.80;72.30;;;;;;219541;1273;25567;-56
2022/10/03 17:28:49;;;;;;;63.20;33.30;;;21.90;72.50;;;;;;219511;1273;25449;-58
2022/10/03 17:34:13;;;;;;;;;;;21.90;71.80;;;;;;218908;1273;25922;-58
2022/10/03 17:39:52;;;;;;;58.40;31.50;;;21.90;72.20;;;;;;219254;1273;23551;-58
2022/10/03 17:45:50;;;;;;;55.00;29.80;;;22.00;72.40;;;;;;219548;1273;25239;-55
2022/10/03 17:51:16;;;;;;;50.40;28.90;;;22.00;71.70;;;;;;219882;1273;22908;-56
2022/10/03 17:56:26;;;;;;;55.90;27.60;;;22.00;71.90;;;;;;219627;1273;251714;-54
2022/10/03 18:01:47;;;;;;;52.20;27.60;;;22.00;71.70;;;;;;219410;1273;24047;-57
2022/10/03 18:06:56;;;;;;;48.30;25.90;;;22.00;71.40;;;;;;219302;1273;24233;-57
2022/10/03 18:12:17;;;;;;;51.10;26.70;;;22.00;71.50;;;;;;219610;1273;22564;-56
2022/10/03 18:17:49;;;;;;;47.90;25.00;;;22.00;71.70;;;;;;219734;1273;24218;-57
2022/10/03 18:23:03;;;;;;;44.70;23.70;;;22.00;71.50;;;;;;219804;1273;22581;-57
2022/10/03 18:28:21;;;;;;;101.60;41.80;;;22.00;71.50;;;;;;220129;1273;24428;-58
2022/10/03 18:33:55;;;;;;;286.60;93.20;;;22.00;71.20;;;;;;219657;1273;21984;-56
2022/10/03 18:39:19;;;;;;;;;;;22.00;71.10;;;;;;219580;1273;22541;-54
2022/10/03 18:44:27;;;;;;;413.90;133.70;;;22.00;71.70;;;;;;220068;1271;22559;-57
2022/10/03 18:49:33;;;;;;;435.20;144.90;;;21.90;71.50;;;;;;219609;1273;22544;-55
2022/10/03 18:54:58;;;;;;;450.90;147.20;;;21.90;71.50;;;;;;219915;1272;25370;-57
2022/10/03 19:00:19;;;;;;;418.80;136.60;;;21.90;71.90;;;;;;219995;1274;24337;-56
2022/10/03 19:05:36;;;;;;;422.50;138.80;;;22.00;71.70;;;;;;219992;1271;22560;-58
2022/10/03 19:10:50;;;;;;;417.60;136.50;;;22.00;71.80;;;;;;219817;1273;25590;-56
2022/10/03 19:16:13;;;;;;;391.70;129.50;;;22.00;71.90;;;;;;219701;1273;22574;-56
2022/10/03 19:21:19;;;;;;;371.00;124.70;;;22.00;71.20;;;;;;219790;1273;24282;-55
2022/10/03 19:26:35;;;;;;;359.80;121.10;;;22.00;71.20;;;;;;219816;1273;25429;-54
2022/10/03 19:31:50;;;;;;;339.00;115.60;;;21.90;71.60;;;;;;219667;1273;23918;-56
2022/10/03 19:36:58;;;;;;;343.10;115.90;;;21.90;71.60;;;;;;219860;1271;24879;-55
2022/10/03 19:42:10;;;;;;;311.10;104.80;;;21.90;72.00;;;;;;219877;1272;25511;-55
2022/10/03 19:47:17;;;;;;;304.90;104.50;;;21.90;71.60;;;;;;219720;1273;24237;-57
2022/10/03 19:52:27;;;;;;;304.70;106.20;;;21.90;71.50;;;;;;219996;1273;25415;-56
2022/10/03 19:57:36;;;;;;;231.70;84.60;;;21.90;72.70;;;;;;219819;1273;25361;-55
2022/10/03 20:02:44;;;;;;;275.00;96.70;;;21.90;72.90;;;;;;220031;1273;22554;-59
2022/10/03 20:08:06;;;;;;;257.40;96.20;;;21.80;72.80;;;;;;219756;1273;22525;-54
2022/10/03 20:13:17;;;;;;;255.60;91.50;;;21.80;72.50;;;;;;219720;1273;23193;-52
2022/10/03 20:18:35;;;;;;;235.50;87.80;;;21.80;72.60;;;;;;219847;1273;25770;-52
2022/10/03 20:23:40;;;;;;;241.40;90.20;;;21.70;72.80;;;;;;219826;1273;23158;-53
2022/10/03 20:28:57;;;;;;;217.50;85.00;;;21.60;72.60;;;;;;219671;1274;25247;-52
2022/10/03 20:34:12;;;;;;;190.60;75.00;;;21.60;72.80;;;;;;219650;1273;24226;-54
2022/10/03 20:39:35;;;;;;;202.40;83.30;;;21.60;72.80;;;;;;219707;1273;25482;-56
2022/10/03 20:45:02;;;;;;;213.40;80.90;;;21.60;72.70;;;;;;219894;1271;22692;-52
2022/10/03 20:50:26;;;;;;;200.20;78.70;;;21.50;72.70;;;;;;220050;1270;25344;-52
2022/10/03 20:55:45;;;;;;;200.20;79.80;;;21.50;74.20;;;;;;220241;1272;22574;-53
2022/10/03 21:00:58;;;;;;;192.40;77.30;;;21.60;75.60;;;;;;220161;1271;22557;-51
2022/10/03 21:06:16;;;;;;;196.20;78.40;;;21.60;75.20;;;;;;219792;1273;22583;-52
2022/10/03 21:11:24;;;;;;;192.80;77.20;;;21.60;75.50;;;;;;220382;1271;22599;-53
2022/10/03 21:16:31;;;;;;;167.30;67.00;;;21.60;75.80;;;;;;220099;1271;22699;-54
2022/10/03 21:21:39;;;;;;;167.10;68.60;;;21.50;75.70;;;;;;219812;1271;22531;-49
2022/10/03 21:26:53;;;;;;;164.70;68.90;;;21.50;75.70;;;;;;219530;1271;24293;-49
2022/10/03 21:32:06;;;;;;;160.50;68.60;;;21.40;76.30;;;;;;219748;1271;22538;-52
2022/10/03 21:37:44;;;;;;;158.60;65.20;;;21.40;75.70;;;;;;220016;1271;25240;-53
2022/10/03 21:43:13;;;;;;;157.10;62.40;;;21.40;75.90;;;;;;219869;1271;22553;-52
2022/10/03 21:48:32;;;;;;;143.10;58.20;;;21.40;75.70;;;;;;219556;1271;24584;-52
2022/10/03 21:53:41;;;;;;;141.80;58.20;;;21.40;76.00;;;;;;219710;1271;22997;-51
2022/10/03 21:59:19;;;;;;;137.90;58.80;;;21.40;75.90;;;;;;220245;1267;22771;-50
2022/10/03 22:04:32;;;;;;;134.60;56.40;;;21.30;75.70;;;;;;220585;1267;22586;-50
2022/10/03 22:09:52;;;;;;;119.00;52.70;;;21.30;75.80;;;;;;220554;1270;22548;-49
2022/10/03 22:15:16;;;;;;;126.90;54.10;;;21.30;75.60;;;;;;220100;1267;24319;-51
2022/10/03 22:20:22;;;;;;;122.50;52.40;;;21.30;75.90;;;;;;220331;1267;22614;-52
2022/10/03 22:25:52;;;;;;;118.00;49.80;;;21.30;75.90;;;;;;220329;1268;22526;-54
2022/10/03 22:31:16;;;;;;;119.20;51.10;;;21.30;75.60;;;;;;220332;1270;22562;-53
2022/10/03 22:36:20;;;;;;;118.60;50.30;;;21.30;75.50;;;;;;220592;1267;24231;-51
2022/10/03 22:41:28;;;;;;;109.80;50.80;;;21.30;75.50;;;;;;220655;1268;23852;-53
2022/10/03 22:46:34;;;;;;;107.80;48.80;;;21.30;75.50;;;;;;220285;1267;22562;-48
2022/10/03 22:51:39;;;;;;;103.20;47.90;;;21.30;75.60;;;;;;220135;1270;23995;-49
2022/10/03 22:56:59;;;;;;;105.00;48.60;;;21.30;75.90;;;;;;220241;1267;22642;-53
2022/10/03 23:02:08;;;;;;;104.80;48.40;;;21.40;75.90;;;;;;220130;1267;24555;-49
2022/10/03 23:07:41;;;;;;;106.70;47.80;;;21.40;76.00;;;;;;219966;1268;23292;-52
2022/10/03 23:13:07;;;;;;;102.80;48.80;;;21.40;75.70;;;;;;220243;1267;23728;-51
2022/10/03 23:18:47;;;;;;;85.20;42.70;;;21.40;75.70;;;;;;220300;1270;23895;-51
2022/10/03 23:24:42;;;;;;;85.70;42.00;;;21.40;76.10;;;;;;220308;1268;23939;-50
2022/10/03 23:30:11;;;;;;;85.90;42.20;;;21.40;76.20;;;;;;219660;1268;22537;-51
2022/10/03 23:35:42;;;;;;;85.50;40.20;;;21.40;76.50;;;;;;220576;1270;22618;-51
2022/10/03 23:40:46;;;;;;;86.20;42.50;;;21.40;76.00;;;;;;220527;1268;25286;-51
2022/10/03 23:45:52;;;;;;;81.30;41.10;;;21.40;76.10;;;;;;220209;1268;22566;-51
2022/10/03 23:51:03;;;;;;;79.10;40.40;;;21.40;76.20;;;;;;220085;1270;24264;-52
2022/10/03 23:56:26;;;;;;;73.50;37.90;;;21.40;76.30;;;;;;225391;1269;25595;-52
